Time;durP1;ratioP1;P1;durP2;ratioP2;P2;SDS_P1;SDS_P2;PMS_P1;PMS_P2;Temp;Humidity;BMP_temperature;BMP_pressure;BME280_temperature;BME280_humidity;BME280_pressure;Samples;Min_cycle;Max_cycle;Signal;HPM_P1;HPM_P2
2023/03/25 00:01:00;;;;;;;9.00;6.30;;;;;;;9.88;96.74;97986.42;107994;1307;22214;-42
2023/03/25 00:03:28;;;;;;;10.00;6.20;;;;;;;9.87;96.96;97977.23;107985;1307;22441;-42
2023/03/25 00:05:54;;;;;;;10.30;6.30;;;;;;;9.86;97.13;97976.63;107977;1307;23059;-42
2023/03/25 00:08:20;;;;;;;9.30;5.70;;;;;;;9.84;97.50;97974.83;107989;1307;22386;-42
2023/03/25 00:10:51;;;;;;;9.90;6.50;;;;;;;9.83;97.97;97973.98;107981;1307;22213;-43
2023/03/25 00:13:16;;;;;;;18.10;6.20;;;;;;;9.83;98.12;97976.33;107992;1307;22228;-42
2023/03/25 00:15:45;;;;;;;10.00;5.50;;;;;;;9.84;97.65;97979.05;107994;1307;22281;-42
2023/03/25 00:18:11;;;;;;;11.00;6.30;;;;;;;9.85;97.52;97982.83;107968;1307;22390;-43
2023/03/25 00:20:39;;;;;;;10.40;6.40;;;;;;;9.86;96.76;97983.39;107990;1307;23011;-42
2023/03/25 00:23:05;;;;;;;12.80;6.20;;;;;;;9.87;96.44;97982.13;107982;1307;22210;-43
2023/03/25 00:25:31;;;;;;;14.10;6.50;;;;;;;9.87;96.77;97977.42;107962;1307;23029;-42
2023/03/25 00:27:56;;;;;;;9.10;6.00;;;;;;;9.85;96.66;97977.23;107974;1307;22408;-50
2023/03/25 00:30:21;;;;;;;10.50;5.90;;;;;;;9.80;96.90;97977.38;107976;1307;22916;-41
2023/03/25 00:32:51;;;;;;;8.60;6.30;;;;;;;9.75;97.49;97975.66;107984;1307;22227;-42
2023/03/25 00:35:18;;;;;;;10.10;6.10;;;;;;;9.72;97.32;97977.27;107970;1307;22982;-42
2023/03/25 00:37:46;;;;;;;8.60;6.40;;;;;;;9.71;97.23;97972.59;107966;1302;22233;-42
2023/03/25 00:40:12;;;;;;;9.20;6.50;;;;;;;9.71;97.20;97964.36;107982;1307;23317;-43
2023/03/25 00:42:43;;;;;;;8.80;6.50;;;;;;;9.66;97.62;97965.11;107965;1307;22211;-43
2023/03/25 00:45:12;;;;;;;10.40;6.50;;;;;;;9.63;97.95;97965.83;107995;1307;22399;-44
2023/03/25 00:47:37;;;;;;;11.60;6.30;;;;;;;9.61;97.60;97965.64;107991;1307;22304;-42
2023/03/25 00:50:03;;;;;;;9.10;5.80;;;;;;;9.61;97.69;97964.91;107956;1307;22244;-42
2023/03/25 00:52:28;;;;;;;9.50;6.20;;;;;;;9.60;98.23;97965.86;107984;1307;22409;-42
2023/03/25 00:54:54;;;;;;;10.40;7.10;;;;;;;9.60;98.37;97963.98;108005;1307;22245;-42
2023/03/25 00:57:19;;;;;;;13.30;6.20;;;;;;;9.58;98.85;97967.06;107970;1307;22897;-42
2023/03/25 00:59:45;;;;;;;11.30;6.40;;;;;;;9.57;99.01;97966.96;107971;1307;23208;-43
2023/03/25 01:02:10;;;;;;;9.80;6.20;;;;;;;9.55;98.93;97962.73;107961;1307;22409;-42
2023/03/25 01:04:38;;;;;;;8.80;6.20;;;;;;;9.53;98.80;97956.56;108000;1307;22394;-42
2023/03/25 01:07:03;;;;;;;7.80;5.60;;;;;;;9.53;98.89;97959.38;108000;1307;22225;-43
2023/03/25 01:09:29;;;;;;;10.20;6.20;;;;;;;9.53;99.11;97964.26;107972;1307;22205;-42
2023/03/25 01:11:54;;;;;;;8.80;6.00;;;;;;;9.55;98.99;97959.93;107988;1307;22530;-41
2023/03/25 01:14:23;;;;;;;10.30;6.90;;;;;;;9.55;98.81;97969.17;107962;1307;22406;-42
2023/03/25 01:16:49;;;;;;;8.80;5.80;;;;;;;9.55;98.58;97972.19;107991;1307;22182;-42
2023/03/25 01:19:14;;;;;;;7.90;5.90;;;;;;;9.53;98.18;97964.78;107989;1307;22363;-42
2023/03/25 01:21:40;;;;;;;9.10;6.00;;;;;;;9.50;98.44;97964.35;107996;1307;22419;-42
2023/03/25 01:24:07;;;;;;;12.00;5.50;;;;;;;9.51;97.93;97960.38;107994;1307;22937;-43
2023/03/25 01:26:33;;;;;;;9.90;6.10;;;;;;;9.53;97.89;97956.95;107978;1307;22235;-44
2023/03/25 01:28:58;;;;;;;10.00;6.40;;;;;;;9.50;98.06;97957.70;107994;1307;22390;-43
2023/03/25 01:31:28;;;;;;;10.40;6.00;;;;;;;9.50;97.95;97963.61;107973;1307;22239;-43
2023/03/25 01:33:55;;;;;;;11.80;5.70;;;;;;;9.49;98.13;97966.83;108004;1307;22501;-43
2023/03/25 01:36:23;;;;;;;9.70;6.30;;;;;;;9.44;98.38;97967.75;107992;1307;22024;-43
2023/03/25 01:38:49;;;;;;;8.80;5.90;;;;;;;9.43;98.33;97965.33;108000;1307;22525;-42
2023/03/25 01:41:15;;;;;;;8.50;6.10;;;;;;;9.44;98.14;97959.88;107978;1307;22862;-43
2023/03/25 01:43:40;;;;;;;7.40;5.40;;;;;;;9.42;98.23;97961.09;107783;1307;23038;-43
2023/03/25 01:46:12;;;;;;;9.40;5.40;;;;;;;9.40;98.07;97960.52;107987;1307;22696;-43
2023/03/25 01:48:41;;;;;;;9.30;5.50;;;;;;;9.39;98.50;97951.84;107985;1307;22963;-42
2023/03/25 01:51:20;;;;;;;11.10;6.30;;;;;;;9.41;98.41;97945.94;107987;1307;22236;-43
2023/03/25 01:53:47;;;;;;;13.90;5.60;;;;;;;9.40;98.62;97946.86;107986;1307;22547;-44
2023/03/25 01:56:17;;;;;;;7.80;5.20;;;;;;;9.39;98.54;97947.61;107983;1307;22251;-43
2023/03/25 01:58:43;;;;;;;7.20;5.40;;;;;;;9.38;98.65;97945.21;107983;1307;22195;-43
2023/03/25 02:01:12;;;;;;;6.50;5.10;;;;;;;9.37;98.49;97952.80;107980;1307;22230;-42
2023/03/25 02:03:45;;;;;;;7.40;5.40;;;;;;;9.35;98.15;97954.55;107994;1307;22242;-43
2023/03/25 02:06:31;;;;;;;9.40;5.60;;;;;;;9.35;98.01;97953.31;107981;1307;22210;-43
2023/03/25 02:09:00;;;;;;;8.50;5.30;;;;;;;9.35;97.93;97956.11;107999;1307;22178;-43
2023/03/25 02:11:28;;;;;;;7.10;4.90;;;;;;;9.34;97.78;97954.09;107979;1307;22361;-42
2023/03/25 02:13:57;;;;;;;6.40;4.80;;;;;;;9.35;97.42;97958.59;107973;1307;22313;-42
2023/03/25 02:16:28;;;;;;;9.40;5.20;;;;;;;9.34;97.68;97961.08;108000;1307;22249;-42
2023/03/25 02:19:08;;;;;;;5.80;4.90;;;;;;;9.31;97.69;97964.66;107988;1307;22268;-43
2023/03/25 02:22:13;;;;;;;6.60;5.20;;;;;;;9.28;97.78;97963.29;107995;1307;22238;-42
2023/03/25 02:25:03;;;;;;;6.50;4.90;;;;;;;9.26;97.99;97959.58;107777;1307;22858;-43
2023/03/25 02:27:44;;;;;;;8.20;5.10;;;;;;;9.23;97.97;97957.69;107973;1307;22393;-41
2023/03/25 02:30:28;;;;;;;8.10;5.00;;;;;;;9.19;98.16;97951.67;107991;1307;22247;-41
2023/03/25 02:33:05;;;;;;;9.70;5.40;;;;;;;9.18;98.28;97947.23;107982;1307;22238;-41
2023/03/25 02:36:01;;;;;;;7.90;5.60;;;;;;;9.15;98.62;97947.38;107989;1307;22233;-43
2023/03/25 02:38:44;;;;;;;7.70;5.00;;;;;;;9.13;99.13;97948.62;107984;1307;22328;-41
2023/03/25 02:43:52;;;;;;;7.40;5.60;;;;;;;9.17;98.36;97958.26;106956;1308;546655;-42
2023/03/25 02:46:18;;;;;;;8.40;5.60;;;;;;;9.11;98.72;97956.21;107353;1313;22343;-43
2023/03/25 02:49:11;;;;;;;9.20;6.00;;;;;;;9.09;98.82;97955.67;107370;1313;22392;-42
2023/03/25 02:51:45;;;;;;;8.40;5.80;;;;;;;9.07;99.03;97948.46;107360;1313;22209;-43
2023/03/25 02:54:14;;;;;;;8.10;5.80;;;;;;;9.06;99.02;97941.73;107337;1313;22285;-42
2023/03/25 02:56:43;;;;;;;8.80;6.00;;;;;;;9.06;98.75;97935.43;107306;1311;112793;-43
2023/03/25 02:59:13;;;;;;;11.50;6.00;;;;;;;9.03;98.89;97929.23;107542;1311;22534;-42
2023/03/25 03:01:39;;;;;;;9.60;6.30;;;;;;;8.99;98.92;97927.18;107534;1304;22397;-42
2023/03/25 03:04:05;;;;;;;9.80;5.90;;;;;;;8.95;98.74;97935.50;107462;1312;22226;-42
2023/03/25 03:06:36;;;;;;;10.60;5.50;;;;;;;8.95;98.99;97940.10;107465;1311;22955;-42
2023/03/25 03:09:21;;;;;;;10.70;5.80;;;;;;;8.93;99.56;97940.05;107461;1312;22248;-42
2023/03/25 03:11:55;;;;;;;11.80;5.70;;;;;;;8.93;99.26;97939.73;107458;1311;22432;-43
2023/03/25 03:14:42;;;;;;;10.40;5.90;;;;;;;8.93;99.30;97938.27;107450;1311;22232;-43
2023/03/25 03:17:23;;;;;;;11.70;6.70;;;;;;;8.96;98.68;97940.16;107473;1312;22421;-43
2023/03/25 03:19:59;;;;;;;14.30;6.50;;;;;;;8.97;98.39;97940.11;107462;1311;22637;-44
2023/03/25 03:22:37;;;;;;;11.50;6.50;;;;;;;8.96;98.59;97939.10;107473;1311;22914;-44
2023/03/25 03:25:38;;;;;;;9.80;6.90;;;;;;;8.93;99.06;97937.09;107441;1311;22247;-43
2023/03/25 03:28:15;;;;;;;9.10;5.80;;;;;;;8.90;98.94;97941.16;107353;1312;23302;-43
2023/03/25 03:30:45;;;;;;;9.30;6.20;;;;;;;8.84;98.80;97946.08;107462;1312;23286;-43
2023/03/25 03:33:24;;;;;;;9.70;6.10;;;;;;;8.81;99.09;97948.39;107449;1312;22254;-44
2023/03/25 03:36:00;;;;;;;12.00;6.40;;;;;;;8.79;99.28;97946.04;107445;1305;22243;-43
2023/03/25 03:38:34;;;;;;;11.50;6.50;;;;;;;8.76;99.60;97948.36;107460;1311;22225;-44
2023/03/25 03:41:06;;;;;;;8.10;5.70;;;;;;;8.76;99.23;97953.06;107465;1312;22224;-42
2023/03/25 03:43:53;;;;;;;7.70;5.70;;;;;;;8.73;99.02;97951.02;107457;1311;22982;-43
2023/03/25 03:46:25;;;;;;;;;;;;;;;8.71;99.36;97948.20;107470;1312;22435;-42
2023/03/25 03:49:16;;;;;;;9.60;6.10;;;;;;;8.68;99.85;97946.70;107444;1312;22220;-42
2023/03/25 03:51:49;;;;;;;11.20;6.40;;;;;;;8.66;99.91;97949.92;107378;1311;22251;-42
2023/03/25 03:54:21;;;;;;;10.10;6.50;;;;;;;8.65;100.00;97948.57;107465;1311;22401;-43
2023/03/25 03:56:53;;;;;;;9.80;6.40;;;;;;;8.66;99.78;97947.48;107455;1311;22215;-43
2023/03/25 03:59:48;;;;;;;11.20;6.00;;;;;;;8.65;99.92;97946.50;107436;1311;22219;-43
2023/03/25 04:02:27;;;;;;;15.60;7.70;;;;;;;8.65;100.00;97945.30;107446;1311;22219;-43
2023/03/25 04:04:53;;;;;;;11.40;6.90;;;;;;;8.64;99.91;97946.19;107451;1311;23157;-44
2023/03/25 04:07:23;;;;;;;13.60;7.20;;;;;;;8.60;99.92;97941.60;107460;1311;22205;-43
2023/03/25 04:09:56;;;;;;;9.70;7.20;;;;;;;8.60;99.77;97941.10;107453;1311;22237;-44
2023/03/25 04:12:26;;;;;;;14.30;7.20;;;;;;;8.55;99.87;97942.17;107461;1311;22237;-43
2023/03/25 04:14:55;;;;;;;8.60;6.60;;;;;;;8.52;99.76;97940.59;107460;1311;23511;-43
2023/03/25 04:17:22;;;;;;;14.90;6.90;;;;;;;8.54;99.31;97944.11;107462;1311;22395;-43
2023/03/25 04:19:52;;;;;;;11.10;6.80;;;;;;;8.53;99.72;97944.16;107455;1311;22998;-43
2023/03/25 04:22:19;;;;;;;12.30;6.90;;;;;;;8.53;99.78;97949.62;107423;1311;22230;-43
2023/03/25 04:24:48;;;;;;;8.50;6.40;;;;;;;8.53;99.91;97951.70;107438;1311;22244;-42
2023/03/25 04:27:14;;;;;;;9.90;6.70;;;;;;;8.53;100.00;97960.65;107450;1311;22954;-43
2023/03/25 04:29:40;;;;;;;11.50;6.80;;;;;;;8.53;99.98;97961.70;107459;1311;22238;-43
2023/03/25 04:32:05;;;;;;;12.80;7.50;;;;;;;8.51;99.90;97967.94;107429;1311;22240;-42
2023/03/25 04:34:30;;;;;;;8.90;7.20;;;;;;;8.52;99.96;97978.02;107455;1311;22919;-42
2023/03/25 04:36:56;;;;;;;8.20;6.40;;;;;;;8.52;99.86;97983.07;107451;1311;22216;-43
2023/03/25 04:39:21;;;;;;;12.00;7.20;;;;;;;8.50;99.66;97980.95;107457;1311;22642;-43
2023/03/25 04:41:48;;;;;;;10.20;7.00;;;;;;;8.46;99.71;97984.67;107446;1311;25472;-43
2023/03/25 04:44:14;;;;;;;18.00;6.80;;;;;;;8.42;99.89;97980.19;107449;1311;22238;-42
2023/03/25 04:46:40;;;;;;;10.80;7.20;;;;;;;8.36;99.99;97978.87;107709;1309;22422;-43
2023/03/25 04:49:12;;;;;;;10.30;6.40;;;;;;;8.33;99.96;97971.52;107678;1309;22238;-43
2023/03/25 04:51:40;;;;;;;9.90;6.90;;;;;;;8.32;99.86;97965.98;107661;1309;22238;-43
2023/03/25 04:54:06;;;;;;;9.80;6.90;;;;;;;8.33;100.00;97967.01;107682;1309;22229;-43
2023/03/25 04:56:32;;;;;;;14.10;7.20;;;;;;;8.33;100.00;97969.79;107712;1309;22796;-42
2023/03/25 04:58:57;;;;;;;9.80;6.60;;;;;;;8.33;99.97;97969.96;107687;1309;22301;-43
2023/03/25 05:01:31;;;;;;;8.20;6.60;;;;;;;8.33;99.99;97975.75;107682;1309;22233;-43
2023/03/25 05:04:05;;;;;;;11.00;6.50;;;;;;;8.26;100.00;97972.17;107678;1309;23092;-43
2023/03/25 05:06:32;;;;;;;10.00;6.70;;;;;;;8.27;100.00;97968.97;107678;1309;22227;-43
2023/03/25 05:09:00;;;;;;;13.00;6.80;;;;;;;8.27;100.00;97971.41;107681;1309;23212;-42
2023/03/25 05:11:27;;;;;;;11.60;6.90;;;;;;;8.24;100.00;97968.84;107702;1309;22256;-44
2023/03/25 05:13:53;;;;;;;8.50;6.30;;;;;;;8.25;100.00;97972.20;107675;1309;22284;-43
2023/03/25 05:16:18;;;;;;;9.30;6.30;;;;;;;8.27;100.00;97980.35;107669;1309;22366;-42
2023/03/25 05:18:43;;;;;;;11.70;6.30;;;;;;;8.30;100.00;97979.95;107666;1309;22267;-43
2023/03/25 05:21:10;;;;;;;9.10;6.20;;;;;;;8.34;99.70;97982.30;107678;1309;22797;-42
2023/03/25 05:23:35;;;;;;;13.10;6.40;;;;;;;8.28;99.61;97977.80;107678;1309;22529;-42
2023/03/25 05:26:00;;;;;;;12.50;6.10;;;;;;;8.27;99.94;97976.99;107654;1309;22217;-44
2023/03/25 05:28:26;;;;;;;10.20;6.30;;;;;;;8.31;99.92;97975.33;107663;1309;22205;-42
2023/03/25 05:30:51;;;;;;;13.40;7.70;;;;;;;8.33;99.89;97978.20;107680;1309;23111;-44
2023/03/25 05:33:17;;;;;;;13.00;8.10;;;;;;;8.33;99.61;97976.77;107660;1309;22248;-48
2023/03/25 05:35:44;;;;;;;16.20;9.30;;;;;;;8.36;99.35;97976.77;107676;1309;22239;-42
2023/03/25 05:38:17;;;;;;;12.80;8.40;;;;;;;8.37;99.36;97976.12;107692;1309;23044;-41
2023/03/25 05:40:46;;;;;;;14.70;8.50;;;;;;;8.35;99.30;97976.45;107687;1309;22284;-42
2023/03/25 05:43:13;;;;;;;14.50;7.40;;;;;;;8.37;99.46;97974.08;107669;1309;22395;-42
2023/03/25 05:45:40;;;;;;;11.30;7.50;;;;;;;8.41;99.11;97980.23;107678;1309;22286;-42
2023/03/25 05:48:05;;;;;;;12.00;7.40;;;;;;;8.44;98.90;97980.60;107675;1309;22224;-42
2023/03/25 05:50:31;;;;;;;13.30;8.00;;;;;;;8.48;98.72;97990.65;107684;1310;23034;-42
2023/03/25 05:52:56;;;;;;;17.70;10.00;;;;;;;8.49;98.79;97987.13;107669;1309;22457;-41
2023/03/25 05:55:22;;;;;;;15.40;10.40;;;;;;;8.50;98.66;97985.28;107665;1309;22209;-42
2023/03/25 05:57:48;;;;;;;12.80;9.10;;;;;;;8.50;98.65;97988.27;107705;1309;22388;-42
2023/03/25 06:00:17;;;;;;;14.10;7.80;;;;;;;8.50;98.58;97984.22;107713;1309;22242;-42
2023/03/25 06:02:43;;;;;;;13.90;8.30;;;;;;;8.50;98.08;97982.81;107675;1298;22215;-42
2023/03/25 06:05:12;;;;;;;9.90;8.10;;;;;;;8.50;98.05;97984.08;107682;1309;22224;-42
2023/03/25 06:07:41;;;;;;;11.70;8.10;;;;;;;8.55;98.21;97984.95;107677;1309;22222;-42
2023/03/25 06:10:08;;;;;;;12.20;8.30;;;;;;;8.62;97.92;97980.45;107669;1309;22186;-43
2023/03/25 06:12:37;;;;;;;12.20;8.10;;;;;;;8.64;97.69;97978.39;107690;1296;22971;-43
2023/03/25 06:15:07;;;;;;;12.90;7.50;;;;;;;8.70;97.60;97974.15;107700;1309;22217;-43
2023/03/25 06:17:33;;;;;;;10.60;7.90;;;;;;;8.76;97.79;97976.50;107724;1309;22199;-43
2023/03/25 06:20:09;;;;;;;13.50;7.70;;;;;;;8.83;97.70;97976.88;107676;1309;22225;-43
2023/03/25 06:22:41;;;;;;;13.20;7.40;;;;;;;8.92;97.36;97979.11;107677;1309;22998;-43
2023/03/25 06:25:08;;;;;;;12.20;7.60;;;;;;;9.02;96.84;97981.17;107689;1309;22390;-44
2023/03/25 06:27:34;;;;;;;20.60;7.20;;;;;;;9.09;96.65;97983.48;107669;1309;22435;-45
2023/03/25 06:30:02;;;;;;;16.90;6.40;;;;;;;9.16;96.63;97984.95;107670;1309;22686;-42
2023/03/25 06:32:29;;;;;;;13.00;6.70;;;;;;;9.17;96.10;97984.53;107700;1309;22836;-43
2023/03/25 06:34:55;;;;;;;9.20;6.30;;;;;;;9.21;95.89;97987.06;107480;1309;22185;-43
2023/03/25 06:37:20;;;;;;;10.20;6.10;;;;;;;9.32;95.80;97988.70;107301;1304;22487;-43
2023/03/25 06:39:48;;;;;;;11.00;5.80;;;;;;;9.44;95.87;97990.98;107486;1309;22378;-43
2023/03/25 06:42:14;;;;;;;9.50;5.30;;;;;;;9.54;95.04;97989.43;107672;1309;22399;-43
2023/03/25 06:44:39;;;;;;;9.20;5.20;;;;;;;9.59;94.15;97990.07;107688;1309;22235;-44
2023/03/25 06:47:05;;;;;;;7.10;5.10;;;;;;;9.72;93.76;97990.77;107686;1309;22249;-44
2023/03/25 06:49:31;;;;;;;8.50;5.50;;;;;;;9.78;93.42;97992.96;107673;1310;22992;-45
2023/03/25 06:51:57;;;;;;;7.40;4.90;;;;;;;9.83;92.89;97993.80;107682;1309;22259;-46
2023/03/25 06:54:22;;;;;;;9.30;4.80;;;;;;;9.90;92.87;97994.67;107655;1309;22142;-44
2023/03/25 06:56:48;;;;;;;8.90;4.80;;;;;;;9.93;92.43;97997.77;107695;1309;22201;-43
2023/03/25 06:59:13;;;;;;;10.10;5.10;;;;;;;10.06;92.17;97994.77;107708;1309;22241;-44
2023/03/25 07:01:38;;;;;;;11.50;5.00;;;;;;;10.16;92.43;97990.12;107673;1309;22269;-44
2023/03/25 07:04:04;;;;;;;8.30;5.00;;;;;;;10.28;92.14;97984.34;107654;1309;22292;-44
2023/03/25 07:06:30;;;;;;;9.10;4.80;;;;;;;10.35;91.42;97983.33;107677;1309;22234;-43
2023/03/25 07:08:55;;;;;;;9.00;4.70;;;;;;;10.45;91.35;97988.59;107689;1309;22395;-44
2023/03/25 07:11:27;;;;;;;9.40;4.30;;;;;;;10.51;90.85;97988.75;107666;1309;22894;-43
2023/03/25 07:13:53;;;;;;;9.30;4.90;;;;;;;10.56;90.21;97992.30;107468;1309;23005;-43
2023/03/25 07:16:20;;;;;;;7.00;4.70;;;;;;;10.61;89.73;97991.05;107681;1309;23080;-43
2023/03/25 07:18:45;;;;;;;8.20;4.30;;;;;;;10.66;89.23;97993.95;107664;1309;22400;-43
2023/03/25 07:21:10;;;;;;;6.30;4.40;;;;;;;10.70;88.97;97996.11;107690;1309;22217;-43
2023/03/25 07:23:36;;;;;;;8.60;4.20;;;;;;;10.76;88.90;97996.51;107678;1309;22396;-44
2023/03/25 07:26:01;;;;;;;10.50;4.90;;;;;;;10.77;88.11;97997.30;107669;1309;23056;-44
2023/03/25 07:28:27;;;;;;;8.30;4.70;;;;;;;10.80;87.60;97992.75;107653;1309;22256;-44
2023/03/25 07:30:52;;;;;;;10.30;4.50;;;;;;;10.79;87.26;97996.15;107660;1309;22220;-43
2023/03/25 07:33:17;;;;;;;7.00;3.90;;;;;;;10.80;87.15;97992.77;107669;1309;24293;-43
2023/03/25 07:35:42;;;;;;;5.40;4.00;;;;;;;10.79;86.87;97991.42;107686;1309;23238;-45
2023/03/25 07:38:08;;;;;;;8.50;4.30;;;;;;;10.79;86.74;97987.24;107690;1309;22232;-44
2023/03/25 07:40:34;;;;;;;9.10;3.60;;;;;;;10.77;86.59;97989.45;107705;1310;22237;-43
2023/03/25 07:42:59;;;;;;;7.00;3.20;;;;;;;10.75;85.96;97991.67;107681;1309;22256;-43
2023/03/25 07:45:25;;;;;;;5.40;4.00;;;;;;;10.69;85.22;97983.05;107666;1309;22246;-43
2023/03/25 07:47:50;;;;;;;7.80;4.30;;;;;;;10.70;85.89;97978.20;107660;1309;22282;-43
2023/03/25 07:50:17;;;;;;;6.30;3.80;;;;;;;10.73;85.51;97978.67;107663;1309;22216;-43
2023/03/25 07:52:42;;;;;;;12.50;3.90;;;;;;;10.89;85.34;97977.96;107675;1309;22309;-45
2023/03/25 07:55:08;;;;;;;8.70;3.80;;;;;;;11.22;84.25;97983.01;107695;1310;22982;-45
2023/03/25 07:57:34;;;;;;;8.70;3.60;;;;;;;11.60;83.06;97984.50;107693;1310;22426;-45
2023/03/25 07:59:59;;;;;;;5.70;3.20;;;;;;;11.87;79.84;97988.83;107669;1309;22232;-43
2023/03/25 08:02:25;;;;;;;4.70;3.10;;;;;;;11.97;79.30;97989.16;107668;1310;22930;-45
2023/03/25 08:04:53;;;;;;;9.00;4.60;;;;;;;12.11;77.96;97984.27;107675;1309;22265;-45
2023/03/25 08:07:18;;;;;;;8.10;4.00;;;;;;;12.20;77.96;97985.16;107685;1309;22203;-45
2023/03/25 08:09:44;;;;;;;15.70;7.60;;;;;;;12.37;77.26;97984.45;107818;1308;22292;-46
2023/03/25 08:12:09;;;;;;;24.50;11.60;;;;;;;12.47;76.62;97985.86;107799;1308;22667;-45
2023/03/25 08:14:35;;;;;;;9.70;5.20;;;;;;;12.70;75.86;97991.85;107788;1308;22217;-44
2023/03/25 08:17:00;;;;;;;9.50;5.20;;;;;;;12.91;74.71;97994.15;107812;1308;22354;-44
2023/03/25 08:19:26;;;;;;;9.20;5.80;;;;;;;13.08;74.27;97994.76;107807;1308;22270;-45
2023/03/25 08:21:51;;;;;;;5.80;3.70;;;;;;;13.23;73.76;97992.61;107800;1308;23082;-44
2023/03/25 08:24:16;;;;;;;6.90;4.20;;;;;;;13.25;72.45;97992.09;107813;1308;22234;-44
2023/03/25 08:26:42;;;;;;;6.40;3.80;;;;;;;13.18;72.89;97987.92;107819;1308;22249;-44
2023/03/25 08:29:08;;;;;;;8.00;3.90;;;;;;;13.20;72.91;97991.61;107834;1308;22292;-44
2023/03/25 08:31:37;;;;;;;8.40;3.60;;;;;;;13.34;73.52;97988.83;107811;1308;22216;-44
2023/03/25 08:34:04;;;;;;;7.20;4.10;;;;;;;13.37;72.34;97986.15;107800;1308;22233;-44
2023/03/25 08:36:30;;;;;;;8.30;4.20;;;;;;;13.42;72.45;97981.27;107801;1308;23281;-45
2023/03/25 08:38:55;;;;;;;9.20;4.00;;;;;;;13.52;72.41;97978.13;107821;1308;23021;-46
2023/03/25 08:41:21;;;;;;;6.60;3.60;;;;;;;13.48;71.57;97979.70;107812;1308;22993;-44
2023/03/25 08:43:46;;;;;;;7.90;3.60;;;;;;;13.42;71.36;97980.77;107818;1308;22206;-45
2023/03/25 08:46:12;;;;;;;8.70;4.00;;;;;;;13.39;71.29;97976.98;107792;1308;22414;-44
2023/03/25 08:48:38;;;;;;;11.90;4.10;;;;;;;13.51;71.72;97975.00;107821;1308;22303;-44
2023/03/25 08:51:04;;;;;;;5.80;3.50;;;;;;;13.55;71.66;97966.93;107802;1308;22208;-44
2023/03/25 08:53:30;;;;;;;5.10;3.60;;;;;;;13.44;70.78;97962.10;107783;1308;22457;-44
2023/03/25 08:55:57;;;;;;;8.40;3.60;;;;;;;13.32;70.86;97958.73;107792;1308;22241;-43
2023/03/25 08:58:23;;;;;;;12.30;4.10;;;;;;;13.29;71.76;97956.70;107786;1308;22122;-44
2023/03/25 09:00:53;;;;;;;6.20;3.40;;;;;;;13.42;71.09;97957.87;107797;1308;22231;-45
2023/03/25 09:03:19;;;;;;;11.80;3.50;;;;;;;13.64;70.68;97960.49;107834;1308;22510;-44
2023/03/25 09:05:45;;;;;;;7.80;3.80;;;;;;;13.80;70.13;97960.27;107829;1308;23392;-45
2023/03/25 09:08:10;;;;;;;6.50;3.50;;;;;;;13.96;69.39;97953.98;107802;1308;22204;-47
2023/03/25 09:10:35;;;;;;;9.00;2.50;;;;;;;13.93;69.17;97957.59;107808;1308;23008;-44
2023/03/25 09:13:01;;;;;;;11.00;2.80;;;;;;;13.78;67.93;97953.51;107805;1308;22239;-44
2023/03/25 09:15:26;;;;;;;8.90;2.50;;;;;;;13.72;68.05;97957.14;107828;1308;23155;-44
2023/03/25 09:17:51;;;;;;;4.30;2.20;;;;;;;13.76;69.20;97955.38;107782;1308;23328;-45
2023/03/25 09:20:17;;;;;;;4.80;2.60;;;;;;;13.64;67.63;97955.96;107800;1308;23203;-44
2023/03/25 09:22:43;;;;;;;3.90;2.40;;;;;;;13.65;68.16;97957.10;107797;1308;22318;-44
2023/03/25 09:25:09;;;;;;;4.30;2.40;;;;;;;13.60;68.27;97956.49;107813;1308;22930;-44
2023/03/25 09:27:35;;;;;;;4.20;2.50;;;;;;;13.58;68.51;97954.48;107811;1308;22386;-44
2023/03/25 09:30:02;;;;;;;6.40;2.70;;;;;;;13.51;68.50;97956.05;107813;1308;22220;-43
2023/03/25 09:32:28;;;;;;;5.30;2.60;;;;;;;13.46;68.75;97960.17;107798;1308;22454;-43
2023/03/25 09:34:53;;;;;;;7.30;3.00;;;;;;;13.41;68.81;97963.40;107811;1308;22318;-42
2023/03/25 09:37:18;;;;;;;8.70;2.70;;;;;;;13.37;68.99;97963.80;107773;1308;22389;-44
2023/03/25 09:39:43;;;;;;;8.30;3.10;;;;;;;13.28;68.97;97968.63;107800;1308;22213;-43
2023/03/25 09:42:27;;;;;;;6.80;2.90;;;;;;;13.19;69.40;97964.08;107802;1308;22199;-42
2023/03/25 09:45:11;;;;;;;7.50;2.80;;;;;;;13.11;69.61;97963.73;107800;1308;22880;-43
2023/03/25 09:47:39;;;;;;;8.90;2.80;;;;;;;12.99;69.70;97963.86;107837;1308;22231;-42
2023/03/25 09:50:13;;;;;;;5.10;3.20;;;;;;;12.90;69.59;97969.19;107808;1308;22300;-42
2023/03/25 09:53:04;;;;;;;7.50;2.90;;;;;;;12.81;69.47;97968.92;107792;1308;22487;-42
2023/03/25 09:55:35;;;;;;;6.10;2.70;;;;;;;12.66;69.90;97964.39;107828;1308;22243;-45
2023/03/25 09:58:20;;;;;;;10.40;4.10;;;;;;;12.65;70.86;97964.48;107804;1308;22252;-42
2023/03/25 10:00:54;;;;;;;7.70;2.80;;;;;;;12.71;71.16;97964.85;107799;1308;23172;-42
2023/03/25 10:03:50;;;;;;;4.70;2.60;;;;;;;12.80;70.95;97955.17;107778;1308;22296;-43
2023/03/25 10:06:18;;;;;;;7.00;2.80;;;;;;;12.79;70.25;97959.09;107802;1308;22481;-43
2023/03/25 10:08:59;;;;;;;5.80;2.60;;;;;;;12.88;69.92;97956.88;107807;1308;22484;-43
2023/03/25 10:11:30;;;;;;;4.60;2.20;;;;;;;12.91;69.24;97958.20;107817;1308;22367;-43
2023/03/25 10:14:14;;;;;;;8.60;3.00;;;;;;;12.98;68.75;97956.19;107781;1308;22917;-44
2023/03/25 10:16:42;;;;;;;7.30;2.60;;;;;;;13.10;68.53;97949.38;107735;1308;22262;-43
2023/03/25 10:19:35;;;;;;;5.80;2.30;;;;;;;13.21;67.69;97945.27;107803;1308;22256;-43
2023/03/25 10:22:06;;;;;;;7.50;2.20;;;;;;;13.25;66.68;97944.25;107803;1308;22252;-43
2023/03/25 10:24:36;;;;;;;4.70;2.20;;;;;;;13.35;65.93;97939.26;107427;1308;23363;-43
2023/03/25 10:27:09;;;;;;;8.50;2.40;;;;;;;13.55;66.37;97941.24;107774;1308;22379;-42
2023/03/25 10:29:46;;;;;;;7.20;2.40;;;;;;;13.54;65.20;97946.96;107799;1308;22233;-44
2023/03/25 10:32:16;;;;;;;4.50;2.30;;;;;;;13.41;64.68;97941.25;107807;1308;22283;-42
2023/03/25 10:34:54;;;;;;;7.00;2.30;;;;;;;13.32;65.02;97944.29;107805;1308;22414;-43
2023/03/25 10:37:32;;;;;;;6.50;1.90;;;;;;;13.27;65.04;97933.31;107779;1308;22271;-44
2023/03/25 10:40:26;;;;;;;9.00;2.30;;;;;;;13.11;65.12;97930.30;107799;1308;22262;-44
2023/03/25 10:43:22;;;;;;;6.70;2.10;;;;;;;13.00;66.19;97932.29;107825;1308;22273;-44
2023/03/25 10:45:55;;;;;;;5.70;2.40;;;;;;;12.83;68.86;97943.41;107820;1308;23063;-45
2023/03/25 10:48:24;;;;;;;12.10;2.70;;;;;;;12.57;72.88;97954.23;107797;1308;22272;-43
2023/03/25 10:50:51;;;;;;;5.20;2.50;;;;;;;12.26;76.59;97962.79;107817;1308;22409;-42
2023/03/25 10:53:25;;;;;;;7.60;2.60;;;;;;;11.74;81.40;97966.02;107818;1308;22223;-43
2023/03/25 10:56:06;;;;;;;4.80;2.00;;;;;;;11.27;83.64;97975.17;107808;1308;22256;-42
2023/03/25 10:58:33;;;;;;;4.80;2.30;;;;;;;10.98;83.82;97968.36;107833;1308;22221;-41
2023/03/25 11:01:00;;;;;;;5.40;2.50;;;;;;;10.76;85.21;97962.90;107810;1308;22899;-42
2023/03/25 11:03:30;;;;;;;3.80;2.20;;;;;;;10.63;85.87;97960.38;107816;1308;22367;-43
2023/03/25 11:05:56;;;;;;;4.20;2.40;;;;;;;10.56;86.87;97956.89;107764;1307;22263;-43
2023/03/25 11:08:23;;;;;;;4.50;2.10;;;;;;;10.56;87.04;97955.30;107805;1302;23208;-44
2023/03/25 11:10:54;;;;;;;7.00;2.30;;;;;;;10.63;87.83;97947.08;107814;1308;22216;-45
2023/03/25 11:13:23;;;;;;;4.70;2.10;;;;;;;10.74;90.08;97942.31;107812;1308;22274;-44
2023/03/25 11:15:52;;;;;;;5.50;2.30;;;;;;;10.90;90.94;97942.54;107784;1308;22445;-43
2023/03/25 11:18:28;;;;;;;4.90;2.50;;;;;;;11.09;89.69;97943.14;107800;1308;22988;-42
2023/03/25 11:21:01;;;;;;;5.00;2.80;;;;;;;11.23;88.59;97941.52;107799;1302;22990;-44
2023/03/25 11:23:32;;;;;;;7.30;2.70;;;;;;;11.29;89.99;97941.73;107892;1301;22340;-43
2023/03/25 11:26:05;;;;;;;5.50;3.10;;;;;;;11.46;90.67;97930.55;107789;1308;22393;-44
2023/03/25 11:28:44;;;;;;;4.40;3.00;;;;;;;12.37;90.70;97921.66;107803;1308;22224;-44
2023/03/25 11:31:20;;;;;;;7.50;3.20;;;;;;;13.63;84.09;97918.86;107800;1308;22228;-43
2023/03/25 11:34:02;;;;;;;8.70;4.40;;;;;;;14.53;80.14;97910.81;107813;1308;22227;-43
2023/03/25 11:36:30;;;;;;;6.50;3.50;;;;;;;14.99;77.78;97910.09;107805;1308;22419;-43
2023/03/25 11:38:58;;;;;;;8.40;4.20;;;;;;;15.09;77.52;97904.55;107870;1307;22506;-45
2023/03/25 11:41:28;;;;;;;7.30;3.80;;;;;;;15.47;75.26;97904.73;107950;1307;23019;-44